Etusivu
METAR-TAF:

METAR-TAF

Lentoasemat :

Den Helder, Alankomaat

Leveyspiiri: 52-55N, Pituuspiiri: 004-47E, korkeus merenpinnasta: 0 m

Tämänhetkinen sää

Tämä raportti tehtiin 37 minuuttia sitten, kello 04.01 UTC
Tuuli 5 kn etelästä
Lämpötila 11°C
Kosteus 94%
Ilmanpaine 1028 hPa
Näkyvyys: 3500 m
utua

METAR: EHKD 210401Z AUTO 17005KT 3500 BR NCD 11/10 Q1028 YLO

Aika: 06:38 (04:38 UTC)

Sääennuste

Tämä raportti tehtiin 15 tuntia ja 50 minuuttia sitten, kello 12.48 UTC
Ennuste voimassa 20. päivästä klo 13 UTC - 21. päivään klo 01 UTC
Tuuli 10 kn lännestä
Näkyvyys 10 km tai enemmän
Hajanaisia pilviä 2200 ft:n korkeudessa
Hajonneita pilviä 3000 ft:n korkeudessa
Tulossa
20. päivästä klo 18 UTC - 20. päivään klo 21 UTC
Tuuli 6 kn etelästä/lounaasta
Todennäköisyys 30%
20. päivästä klo 22 UTC - 21. päivään klo 01 UTC
Näkyvyys: 4000 m
utua

TAF: EHKD 201248Z 2013/2101 26010KT 9999 SCT022 BKN030 BECMG 2018/2021 20006KT PROB30 2022/2101 4000 BR

Säähavainnot ja -ennusteet yli 4000 lentoasemalta (METAR- ja TAF-raportit).

Käytössä olevat sääasemat on merkitty karttaan keltaisilla ja punaisilla pisteillä.

Aseta hiiri pisteen päälle nähdäksesi sääaseman nimen.

Klikkaa sitten nähdäksesi säähavainnot ja -ennusteet.

Kartan vaihtaminen: klikkaa mustalla rastilla varustettuja vihreitä pisteitä, niin voit zoomata sisään; viivalla varustettua vihreää pistettä, niin voit zoomata ulos tai vihreitä nuolia, niin pääset viereisille kartoille.


METAR-TAF: